Time;durP1;ratioP1;P1;durP2;ratioP2;P2;SDS_P1;SDS_P2;PMS_P1;PMS_P2;Temp;Humidity;BMP_temperature;BMP_pressure;BME280_temperature;BME280_humidity;BME280_pressure;Samples;Min_cycle;Max_cycle;Signal;HPM_P1;HPM_P2
2022/04/02 00:00:51;;;;;;;16.92;8.90;;;;;;;1.83;nan;98013.16;5073199;28;20099;-78
2022/04/02 00:03:19;;;;;;;12.48;6.50;;;;;;;1.71;nan;98020.84;5073089;28;20123;-77
2022/04/02 00:05:46;;;;;;;9.88;5.30;;;;;;;1.75;nan;98026.88;5073286;28;20377;-76
2022/04/02 00:08:14;;;;;;;10.52;5.50;;;;;;;1.78;nan;98020.53;5073007;28;20075;-78
2022/04/02 00:10:43;;;;;;;17.60;8.85;;;;;;;1.85;nan;98017.50;5073405;28;20045;-78
2022/04/02 00:13:11;;;;;;;13.07;6.50;;;;;;;1.84;nan;98023.75;5073173;28;20051;-78
2022/04/02 00:15:39;;;;;;;23.98;12.68;;;;;;;1.80;nan;98018.66;5073139;28;20056;-78
2022/04/02 00:18:06;;;;;;;11.90;5.78;;;;;;;1.76;nan;98023.28;5079755;28;20483;-77
2022/04/02 00:20:34;;;;;;;10.30;5.45;;;;;;;1.80;nan;98011.53;5093407;28;20595;-77
2022/04/02 00:25:47;;;;;;;11.25;5.93;;;;;;;1.76;nan;98012.63;5072995;28;20178;-79
2022/04/02 00:28:15;;;;;;;27.98;15.45;;;;;;;1.76;nan;98007.31;5072864;28;20044;-78
2022/04/02 00:30:43;;;;;;;22.38;12.25;;;;;;;1.84;nan;98012.25;5072239;28;20127;-78
2022/04/02 00:33:11;;;;;;;10.73;5.43;;;;;;;1.72;nan;98003.94;5072611;28;20036;-78
2022/04/02 00:35:39;;;;;;;10.93;5.20;;;;;;;1.77;nan;98008.16;5072873;28;20055;-78
2022/04/02 00:38:07;;;;;;;10.00;4.90;;;;;;;1.84;nan;98006.94;5072909;28;20048;-77
2022/04/02 00:40:37;;;;;;;9.98;4.85;;;;;;;1.69;nan;98001.41;5057463;28;20127;-77
2022/04/02 00:43:07;;;;;;;9.10;4.60;;;;;;;1.74;nan;98004.72;5053552;28;20098;-76
2022/04/02 00:45:35;;;;;;;11.52;5.70;;;;;;;1.74;nan;97999.38;5052898;28;20148;-76
2022/04/02 00:48:03;;;;;;;14.07;7.38;;;;;;;1.77;nan;98005.50;5052394;28;20049;-75
2022/04/02 00:50:31;;;;;;;16.30;8.38;;;;;;;1.82;nan;97998.13;5052809;28;20479;-75
2022/04/02 01:15:18;;;;;;;8.57;4.43;;;;;;;1.77;100.00;98000.16;5151830;27;20460;-76
2022/04/02 01:17:46;;;;;;;9.10;4.40;;;;;;;1.77;100.00;98008.16;5152048;27;20047;-76
2022/04/02 01:20:14;;;;;;;7.93;3.92;;;;;;;1.70;100.00;98002.28;5151714;27;20057;-76
2022/04/02 01:22:43;;;;;;;8.93;4.45;;;;;;;1.77;100.00;98003.72;5141064;27;20043;-76
2022/04/02 01:25:10;;;;;;;8.88;4.40;;;;;;;1.85;100.00;98008.66;5131131;27;20424;-76
2022/04/02 01:27:38;;;;;;;9.10;4.60;;;;;;;1.79;100.00;98008.94;5131196;27;20043;-77
2022/04/02 01:30:07;;;;;;;9.07;4.30;;;;;;;1.83;100.00;98014.06;5131266;28;20044;-77
2022/04/02 01:32:34;;;;;;;7.75;3.80;;;;;;;1.72;100.00;98013.72;5131120;27;20043;-76
2022/04/02 01:35:02;;;;;;;8.27;4.00;;;;;;;1.76;100.00;98017.09;5130585;27;20048;-77
2022/04/02 01:37:29;;;;;;;7.65;3.80;;;;;;;1.73;100.00;98010.97;5131174;27;20108;-77
2022/04/02 01:39:58;;;;;;;7.97;3.80;;;;;;;1.65;100.00;98015.81;5118491;27;20040;-77
2022/04/02 01:42:26;;;;;;;7.97;4.00;;;;;;;1.76;100.00;98017.09;5110331;28;20051;-78
2022/04/02 01:44:54;;;;;;;8.57;4.10;;;;;;;1.77;100.00;98013.47;5110375;28;20056;-77
2022/04/02 01:47:21;;;;;;;8.07;3.97;;;;;;;1.69;100.00;98012.06;5110416;28;20043;-77
2022/04/02 01:49:50;;;;;;;8.63;4.32;;;;;;;1.74;100.00;98012.69;5110078;28;20048;-76
2022/04/02 01:52:18;;;;;;;8.25;3.92;;;;;;;1.75;100.00;98010.91;5110300;28;20043;-76
2022/04/02 01:54:47;;;;;;;6.78;3.67;;;;;;;1.69;100.00;98005.91;5110146;28;20367;-76
2022/04/02 01:57:15;;;;;;;8.18;3.70;;;;;;;1.75;100.00;98013.56;5110210;28;20043;-76
2022/04/02 01:59:44;;;;;;;7.95;3.92;;;;;;;1.66;100.00;98019.34;5110173;28;20094;-77
2022/04/02 02:02:12;;;;;;;7.82;3.88;;;;;;;1.75;100.00;98010.91;5110247;28;20048;-79
2022/04/02 02:04:39;;;;;;;7.00;3.50;;;;;;;1.75;100.00;98013.56;5109515;28;20043;-77
2022/04/02 02:07:07;;;;;;;7.53;3.80;;;;;;;1.67;100.00;98013.94;5124213;28;20039;-77
2022/04/02 02:09:35;;;;;;;7.82;3.80;;;;;;;1.77;100.00;98016.13;5130579;27;20489;-78
2022/04/02 02:23:59;;;;;;;7.82;3.80;;;;;;;1.76;100.00;98022.41;5081027;28;20482;-77
2022/04/02 02:26:27;;;;;;;7.88;3.85;;;;;;;1.64;100.00;98024.75;5095981;28;20040;-77
2022/04/02 02:28:54;;;;;;;6.15;3.40;;;;;;;1.77;100.00;98017.03;5096227;28;20048;-77
2022/04/02 02:31:22;;;;;;;7.30;3.50;;;;;;;1.83;100.00;98018.50;5096012;28;20039;-77
2022/04/02 02:36:49;;;;;;;7.90;3.80;;;;;;;1.68;100.00;98014.81;5053720;28;20123;-77
2022/04/02 02:39:18;;;;;;;7.82;3.50;;;;;;;1.74;100.00;98015.34;5053486;28;20045;-77
2022/04/02 02:41:45;;;;;;;7.45;3.55;;;;;;;1.77;100.00;98018.81;5071447;28;20044;-77
2022/04/02 02:44:13;;;;;;;7.57;3.47;;;;;;;1.77;100.00;98016.13;5073471;28;20052;-77
2022/04/02 02:46:40;;;;;;;6.57;3.28;;;;;;;1.77;100.00;98018.81;5073252;28;20067;-76
2022/04/02 03:00:30;;;;;;;5.63;3.10;;;;;;;1.71;100.00;98015.50;5151843;27;20482;-77
2022/04/02 03:02:58;;;;;;;6.88;3.30;;;;;;;1.74;100.00;98020.69;5152084;27;20492;-76
2022/04/02 03:09:06;;;;;;;6.25;3.20;;;;;;;1.69;100.00;98025.38;5127632;27;20050;-76
2022/04/02 03:11:33;;;;;;;6.20;3.28;;;;;;;1.78;100.00;98018.75;5132688;27;20047;-76
2022/04/02 03:14:01;;;;;;;8.77;4.10;;;;;;;1.70;100.00;98024.44;5131246;27;20093;-77
2022/04/02 03:16:32;;;;;;;8.32;3.92;;;;;;;1.68;100.00;98022.81;5131237;27;20510;-76
2022/04/02 03:19:00;;;;;;;8.55;4.13;;;;;;;1.64;100.00;98024.75;5131981;27;20512;-77
2022/04/02 03:21:28;;;;;;;7.78;4.07;;;;;;;1.69;100.00;98036.03;5131126;27;20114;-76
2022/04/02 03:23:56;;;;;;;6.68;3.50;;;;;;;1.75;100.00;98016.22;5132431;27;20389;-75
2022/04/02 03:26:23;;;;;;;6.50;3.50;;;;;;;1.67;100.00;98019.25;5151714;27;20092;-76
2022/04/02 03:28:51;;;;;;;7.07;3.70;;;;;;;1.63;100.00;98023.03;5151531;27;20099;-77
2022/04/02 03:31:18;;;;;;;7.47;3.75;;;;;;;1.64;100.00;98022.06;5151606;27;20170;-76
2022/04/02 03:33:47;;;;;;;8.30;4.20;;;;;;;1.69;100.00;98017.38;5151614;27;20402;-77
2022/04/02 03:36:15;;;;;;;8.40;4.45;;;;;;;1.59;100.00;98022.28;5151274;27;20043;-76
2022/04/02 03:38:43;;;;;;;7.32;3.50;;;;;;;1.64;100.00;98016.75;5151100;27;20031;-76
2022/04/02 03:41:12;;;;;;;7.95;3.92;;;;;;;1.63;100.00;98017.69;5151284;27;20057;-77
2022/04/02 03:43:40;;;;;;;9.82;4.50;;;;;;;1.71;100.00;98025.31;5151254;27;20042;-76
2022/04/02 03:48:54;;;;;;;7.15;3.30;;;;;;;1.71;100.00;98015.50;5150966;27;20047;-77
2022/04/02 03:51:21;;;;;;;7.68;3.42;;;;;;;1.65;100.00;98017.63;5148631;27;20155;-76
2022/04/02 03:53:49;;;;;;;8.80;4.22;;;;;;;1.67;100.00;98018.41;5130255;27;20043;-76
2022/04/02 03:56:16;;;;;;;8.50;3.78;;;;;;;1.76;100.00;98019.75;5130377;27;20047;-76
2022/04/02 03:58:44;;;;;;;7.57;3.83;;;;;;;1.61;100.00;98019.56;5129678;27;20055;-77
2022/04/02 04:01:11;;;;;;;6.57;3.30;;;;;;;1.67;100.00;98016.59;5117951;27;20056;-77
2022/04/02 04:03:39;;;;;;;6.93;3.60;;;;;;;1.67;100.00;98013.94;5116448;28;20047;-76
2022/04/02 04:06:08;;;;;;;7.22;3.38;;;;;;;1.72;100.00;98011.91;5116168;27;20047;-76
2022/04/02 04:15:57;;;;;;;8.35;4.10;;;;;;;1.71;100.00;98015.50;5115337;28;20066;-76
2022/04/02 04:42:12;;;;;;;6.22;3.25;;;;;;;1.70;100.00;98040.41;5085998;27;20062;-77
2022/04/02 04:44:40;;;;;;;7.38;3.65;;;;;;;1.69;100.00;98044.00;5087574;28;20485;-78
2022/04/02 04:58:11;;;;;;;8.35;4.10;;;;;;;1.71;100.00;98047.44;5085284;27;20044;-77
2022/04/02 05:00:39;;;;;;;8.50;3.95;;;;;;;1.70;100.00;98059.03;5087364;28;20494;-77
2022/04/02 05:03:08;;;;;;;10.05;4.88;;;;;;;1.74;100.00;98055.28;5086424;27;20486;-78
2022/04/02 05:05:37;;;;;;;8.48;3.90;;;;;;;1.72;100.00;98054.50;5086333;27;20123;-77
2022/04/02 05:08:05;;;;;;;7.28;3.35;;;;;;;1.66;100.00;98057.47;5086283;27;20055;-76
2022/04/02 05:10:40;;;;;;;9.63;4.55;;;;;;;1.72;100.00;98059.81;5087544;28;20045;-78
2022/04/02 05:13:12;;;;;;;7.10;3.55;;;;;;;1.69;100.00;98056.47;5086010;27;20051;-77
2022/04/02 05:15:41;;;;;;;6.95;3.40;;;;;;;1.71;100.00;98052.78;5086440;28;20136;-76
2022/04/02 05:18:10;;;;;;;6.25;3.38;;;;;;;1.63;100.00;98062.94;5085920;27;20049;-77
2022/04/02 05:20:39;;;;;;;7.13;3.60;;;;;;;1.77;100.00;98061.41;5086279;27;20045;-76
2022/04/02 05:23:07;;;;;;;6.20;3.17;;;;;;;1.71;100.00;98057.25;5066906;27;20045;-76
2022/04/02 05:25:35;;;;;;;8.88;4.38;;;;;;;1.78;100.00;98061.34;5065598;28;20077;-76
2022/04/02 05:28:04;;;;;;;7.05;3.63;;;;;;;1.76;100.00;98060.56;5065979;28;20101;-76
2022/04/02 05:30:34;;;;;;;8.35;4.25;;;;;;;1.73;100.00;98058.88;5059408;28;20085;-76
